createdAt,value
2022-11-23T00:01:29.675Z,4.32
2022-11-23T00:04:00.852Z,4.10
2022-11-23T00:06:27.827Z,3.63
2022-11-23T00:08:54.574Z,3.17
2022-11-23T00:11:22.817Z,3.03
2022-11-23T00:13:49.986Z,3.80
2022-11-23T00:16:19.532Z,3.53
2022-11-23T00:18:46.763Z,2.92
2022-11-23T00:21:15.981Z,3.30
2022-11-23T00:23:43.649Z,3.40
2022-11-23T00:26:10.865Z,3.10
2022-11-23T00:28:40.599Z,2.90
2022-11-23T00:31:08.522Z,3.30
2022-11-23T00:33:35.308Z,2.90
2022-11-23T00:36:05.881Z,3.30
2022-11-23T00:38:32.476Z,3.38
2022-11-23T00:41:05.096Z,3.35
2022-11-23T00:43:32.287Z,3.88
2022-11-23T00:46:24.874Z,3.75
2022-11-23T00:48:53.547Z,3.38
2022-11-23T00:51:26.201Z,4.10
2022-11-23T00:53:53.244Z,3.40
2022-11-23T00:56:20.652Z,3.60
2022-11-23T00:58:55.647Z,3.47
2022-11-23T01:01:24.699Z,4.03
2022-11-23T01:03:54.281Z,4.18
2022-11-23T01:06:26.720Z,4.03
2022-11-23T01:08:56.262Z,3.85
2022-11-23T01:11:24.788Z,3.60
2022-11-23T01:13:51.551Z,3.65
2022-11-23T01:16:24.205Z,4.05
2022-11-23T01:18:59.278Z,3.35
2022-11-23T01:21:27.156Z,3.60
2022-11-23T01:23:53.878Z,3.53
2022-11-23T01:26:21.027Z,3.58
2022-11-23T01:28:48.060Z,3.60
2022-11-23T01:31:22.920Z,3.60
2022-11-23T01:33:57.317Z,3.35
2022-11-23T01:36:27.880Z,3.80
2022-11-23T01:38:55.212Z,3.90
2022-11-23T01:41:28.118Z,3.38
2022-11-23T01:43:54.930Z,3.17
2022-11-23T01:46:22.094Z,3.70
2022-11-23T01:49:01.846Z,3.00
2022-11-23T01:51:43.499Z,3.15
2022-11-23T01:54:22.518Z,3.20
2022-11-23T01:56:55.675Z,3.00
2022-11-23T01:59:23.788Z,2.88
2022-11-23T02:01:50.572Z,3.40
2022-11-23T02:04:23.844Z,2.97
2022-11-23T02:06:50.794Z,3.08
2022-11-23T02:09:17.949Z,2.92
2022-11-23T02:11:44.871Z,3.33
2022-11-23T02:14:12.252Z,3.20
2022-11-23T02:16:39.417Z,3.05
2022-11-23T02:19:12.799Z,3.17
2022-11-23T02:21:41.141Z,3.08
2022-11-23T02:24:12.908Z,3.13
2022-11-23T02:26:39.967Z,3.40
2022-11-23T02:29:19.035Z,3.22
2022-11-23T02:31:45.688Z,3.40
2022-11-23T02:34:12.376Z,3.08
2022-11-23T02:36:44.956Z,3.20
2022-11-23T02:39:24.296Z,2.90
2022-11-23T02:41:54.748Z,3.00
2022-11-23T02:44:44.726Z,3.25
2022-11-23T02:47:12.062Z,3.25
2022-11-23T02:49:41.518Z,3.58
2022-11-23T02:52:09.069Z,3.45
2022-11-23T02:54:35.885Z,3.20
2022-11-23T02:57:02.838Z,3.05
2022-11-23T02:59:32.723Z,2.88
2022-11-23T03:02:04.360Z,2.70
2022-11-23T03:04:31.239Z,3.42
2022-11-23T03:06:58.347Z,3.33
2022-11-23T03:09:26.404Z,3.15
2022-11-23T03:11:53.870Z,2.50
2022-11-23T03:14:20.969Z,3.40
2022-11-23T03:16:47.713Z,3.45
2022-11-23T03:19:14.351Z,2.60
2022-11-23T03:21:40.979Z,3.28
2022-11-23T03:24:07.640Z,2.70
2022-11-23T03:26:34.253Z,2.50
2022-11-23T03:29:00.817Z,2.63
2022-11-23T03:31:27.481Z,3.08
2022-11-23T03:33:54.048Z,2.35
2022-11-23T03:36:20.709Z,2.65
2022-11-23T03:38:47.281Z,3.00
2022-11-23T03:41:13.981Z,2.90
2022-11-23T03:43:40.542Z,2.60
2022-11-23T03:46:07.062Z,2.63
2022-11-23T03:48:33.783Z,2.90
2022-11-23T03:51:00.363Z,2.58
2022-11-23T03:53:27.070Z,2.65
2022-11-23T03:55:56.295Z,2.75
2022-11-23T03:58:23.034Z,2.90
2022-11-23T04:00:49.825Z,2.22
2022-11-23T04:03:16.499Z,2.22
2022-11-23T04:05:43.559Z,2.25
2022-11-23T04:08:10.532Z,2.30
2022-11-23T04:10:37.216Z,2.30
2022-11-23T04:13:03.906Z,2.13
2022-11-23T04:15:30.511Z,2.67
2022-11-23T04:17:57.142Z,2.20
2022-11-23T04:20:23.718Z,2.08
2022-11-23T04:22:50.386Z,2.28
2022-11-23T04:25:17.105Z,1.98
2022-11-23T04:27:43.632Z,2.00
2022-11-23T04:30:10.741Z,2.13
2022-11-23T04:32:37.695Z,1.83
2022-11-23T04:35:04.652Z,2.20
2022-11-23T04:37:31.373Z,1.83
2022-11-23T04:39:58.041Z,2.10
2022-11-23T04:42:24.644Z,1.83
2022-11-23T04:44:51.280Z,2.58
2022-11-23T04:47:18.026Z,1.80
2022-11-23T04:49:44.692Z,2.50
2022-11-23T04:52:11.304Z,2.17
2022-11-23T04:54:38.159Z,2.25
2022-11-23T04:57:04.692Z,2.33
2022-11-23T04:59:31.550Z,2.20
2022-11-23T05:01:58.373Z,2.50
2022-11-23T05:04:24.902Z,2.00
2022-11-23T05:06:51.485Z,1.73
2022-11-23T05:09:18.592Z,1.90
2022-11-23T05:11:45.244Z,1.95
2022-11-23T05:14:11.879Z,1.65
2022-11-23T05:16:38.517Z,1.65
2022-11-23T05:19:05.156Z,1.77
2022-11-23T05:21:31.936Z,1.80
2022-11-23T05:23:58.943Z,2.35
2022-11-23T05:26:26.635Z,2.38
2022-11-23T05:28:53.159Z,1.95
2022-11-23T05:31:20.028Z,2.00
2022-11-23T05:33:46.712Z,2.45
2022-11-23T05:36:14.132Z,2.60
2022-11-23T05:38:41.113Z,2.03
2022-11-23T05:41:07.882Z,2.30
2022-11-23T05:43:34.788Z,2.40
2022-11-23T05:46:02.205Z,2.35
2022-11-23T05:48:28.793Z,1.88
2022-11-23T05:50:55.680Z,2.63
2022-11-23T05:53:23.539Z,2.42
2022-11-23T05:55:50.255Z,2.13
2022-11-23T05:58:16.865Z,1.80
2022-11-23T06:00:43.617Z,1.90
2022-11-23T06:03:10.463Z,2.10
2022-11-23T06:05:37.147Z,1.95
2022-11-23T06:08:03.930Z,1.90
2022-11-23T06:10:30.678Z,1.70
2022-11-23T06:13:02.759Z,2.28
2022-11-23T06:15:29.508Z,2.47
2022-11-23T06:18:02.587Z,2.08
2022-11-23T06:20:29.993Z,1.77
2022-11-23T06:22:56.784Z,1.58
2022-11-23T06:25:23.637Z,2.03
2022-11-23T06:27:57.683Z,2.05
2022-11-23T06:30:25.282Z,2.10
2022-11-23T06:32:51.877Z,1.83
2022-11-23T06:35:18.858Z,2.40
2022-11-23T06:37:47.791Z,1.80
2022-11-23T06:40:14.428Z,2.53
2022-11-23T06:42:41.246Z,2.28
2022-11-23T06:45:09.119Z,1.98
2022-11-23T06:47:35.853Z,2.17
2022-11-23T06:50:02.541Z,1.90
2022-11-23T06:52:29.211Z,2.15
2022-11-23T06:54:55.767Z,2.05
2022-11-23T06:57:22.436Z,2.63
2022-11-23T06:59:49.358Z,2.17
2022-11-23T07:02:16.014Z,1.98
2022-11-23T07:04:42.805Z,2.45
2022-11-23T07:07:09.701Z,2.42
2022-11-23T07:09:36.613Z,2.38
2022-11-23T07:12:03.204Z,2.20
2022-11-23T07:14:29.844Z,1.90
2022-11-23T07:16:56.563Z,1.95
2022-11-23T07:19:23.130Z,2.38
2022-11-23T07:21:49.735Z,2.53
2022-11-23T07:24:16.262Z,2.00
2022-11-23T07:26:42.867Z,2.20
2022-11-23T07:29:10.584Z,3.38
2022-11-23T07:31:37.263Z,2.65
2022-11-23T07:34:04.969Z,2.38
2022-11-23T07:36:31.521Z,3.28
2022-11-23T07:38:58.192Z,2.30
2022-11-23T07:41:27.463Z,1.75
2022-11-23T07:43:54.317Z,2.00
2022-11-23T07:46:21.639Z,2.45
2022-11-23T07:48:48.242Z,2.20
2022-11-23T07:51:16.244Z,2.60
2022-11-23T07:53:42.901Z,2.10
2022-11-23T07:56:09.505Z,2.20
2022-11-23T07:58:36.109Z,2.03
2022-11-23T08:01:02.992Z,2.28
2022-11-23T08:03:30.216Z,2.03
2022-11-23T08:05:57.391Z,2.30
2022-11-23T08:08:23.986Z,2.83
2022-11-23T08:10:53.751Z,2.30
2022-11-23T08:13:21.061Z,1.80
2022-11-23T08:15:53.277Z,2.30
2022-11-23T08:18:20.899Z,2.30
2022-11-23T08:20:47.512Z,2.25
2022-11-23T08:23:14.115Z,2.20
2022-11-23T08:25:40.858Z,2.22
2022-11-23T08:28:08.024Z,2.35
2022-11-23T08:30:35.258Z,2.60
2022-11-23T08:33:12.553Z,2.22
2022-11-23T08:35:41.359Z,2.65
2022-11-23T08:38:09.754Z,2.08
2022-11-23T08:40:37.113Z,1.92
2022-11-23T08:43:04.755Z,2.00
2022-11-23T08:45:31.507Z,2.13
2022-11-23T08:48:02.657Z,2.20
2022-11-23T08:50:29.791Z,2.33
2022-11-23T08:52:58.055Z,2.47
2022-11-23T08:55:25.724Z,2.30
2022-11-23T08:57:55.867Z,2.42
2022-11-23T09:00:22.820Z,2.67
2022-11-23T09:02:49.488Z,1.90
2022-11-23T09:05:16.108Z,2.20
2022-11-23T09:07:42.810Z,1.88
2022-11-23T09:10:12.554Z,2.28
2022-11-23T09:12:43.562Z,1.55
2022-11-23T09:15:10.691Z,1.88
2022-11-23T09:17:37.371Z,1.90
2022-11-23T09:20:04.251Z,1.98
2022-11-23T09:22:31.722Z,1.92
2022-11-23T09:24:58.300Z,2.08
2022-11-23T09:27:25.096Z,2.25
2022-11-23T09:29:51.729Z,2.10
2022-11-23T09:32:18.471Z,2.75
2022-11-23T09:34:45.516Z,1.70
2022-11-23T09:37:13.370Z,2.33
2022-11-23T09:39:40.024Z,2.20
2022-11-23T09:42:21.937Z,2.05
2022-11-23T09:45:18.831Z,2.17
2022-11-23T09:48:07.264Z,2.33
2022-11-23T09:50:47.414Z,1.83
2022-11-23T09:53:28.105Z,2.50
2022-11-23T09:55:57.186Z,2.53
2022-11-23T09:58:30.125Z,2.05
2022-11-23T10:01:12.211Z,2.17
2022-11-23T10:03:48.473Z,2.30
2022-11-23T10:06:25.518Z,2.08
2022-11-23T10:09:09.356Z,2.25
2022-11-23T10:11:49.073Z,2.20
2022-11-23T10:14:53.214Z,2.22
2022-11-23T10:17:45.466Z,2.28
2022-11-23T10:20:20.660Z,2.45
2022-11-23T10:22:53.073Z,2.35
2022-11-23T10:25:21.444Z,2.30
2022-11-23T10:27:51.003Z,3.03
2022-11-23T10:30:19.459Z,2.88
2022-11-23T10:32:52.021Z,2.05
2022-11-23T10:35:29.515Z,2.45
2022-11-23T10:38:19.227Z,2.00
2022-11-23T10:40:58.279Z,2.53
2022-11-23T10:43:31.618Z,1.60
2022-11-23T10:46:28.070Z,1.90
2022-11-23T10:48:56.418Z,1.75
2022-11-23T10:51:35.706Z,1.92
2022-11-23T10:54:05.960Z,2.05
2022-11-23T10:56:34.375Z,2.25
2022-11-23T10:59:01.549Z,1.48
2022-11-23T11:01:30.355Z,1.20
2022-11-23T11:04:04.233Z,2.00
2022-11-23T11:06:34.611Z,1.40
2022-11-23T11:09:15.742Z,1.83
2022-11-23T11:11:47.647Z,1.38
2022-11-23T11:14:16.842Z,1.85
2022-11-23T11:17:00.567Z,2.13
2022-11-23T11:19:32.879Z,1.95
2022-11-23T11:22:20.410Z,1.70
2022-11-23T11:24:47.431Z,2.10
2022-11-23T11:27:17.408Z,1.80
2022-11-23T11:29:43.868Z,1.65
2022-11-23T11:32:24.986Z,1.75
2022-11-23T11:35:20.375Z,1.92
2022-11-23T11:37:50.477Z,2.72
2022-11-23T11:40:35.724Z,1.83
2022-11-23T11:43:23.017Z,2.20
2022-11-23T11:46:28.430Z,1.92
2022-11-23T11:48:53.452Z,1.48
2022-11-23T11:51:28.118Z,2.67
2022-11-23T11:54:09.477Z,1.60
2022-11-23T11:56:49.148Z,1.35
2022-11-23T11:59:19.239Z,1.90
2022-11-23T12:01:59.038Z,1.67
2022-11-23T12:04:40.230Z,1.73
2022-11-23T12:07:16.254Z,2.10
2022-11-23T12:09:46.669Z,1.60
2022-11-23T12:12:18.720Z,2.30
2022-11-23T12:14:46.965Z,1.77
2022-11-23T12:17:51.735Z,1.83
2022-11-23T12:20:37.311Z,1.67
2022-11-23T12:23:03.793Z,1.92
2022-11-23T12:25:38.467Z,2.17
2022-11-23T12:28:16.835Z,1.95
2022-11-23T12:31:03.756Z,1.92
2022-11-23T12:36:34.597Z,1.67
2022-11-23T12:39:19.223Z,1.75
2022-11-23T12:42:01.376Z,2.90
2022-11-23T12:44:52.826Z,1.65
2022-11-23T12:47:19.329Z,1.50
2022-11-23T12:50:14.593Z,1.73
2022-11-23T12:53:19.148Z,1.42
2022-11-23T12:56:13.650Z,1.48
2022-11-23T12:58:43.791Z,1.98
2022-11-23T13:01:37.903Z,1.83
2022-11-23T13:04:16.475Z,1.55
2022-11-23T13:07:28.450Z,1.63
2022-11-23T13:09:57.829Z,1.40
2022-11-23T13:12:39.369Z,1.90
2022-11-23T13:15:42.844Z,1.75
2022-11-23T13:18:19.658Z,1.77
2022-11-23T13:23:45.839Z,1.88
2022-11-23T13:26:17.009Z,1.52
2022-11-23T13:28:45.506Z,1.10
2022-11-23T13:31:15.829Z,1.55
2022-11-23T13:33:45.353Z,1.60
2022-11-23T13:36:56.556Z,1.75
2022-11-23T13:39:45.387Z,2.10
2022-11-23T13:42:13.083Z,1.27
2022-11-23T13:44:40.064Z,1.58
2022-11-23T13:47:16.399Z,1.95
2022-11-23T13:50:17.048Z,1.30
2022-11-23T13:52:50.844Z,1.50
2022-11-23T13:55:28.417Z,1.50
2022-11-23T13:58:22.127Z,1.38
2022-11-23T14:00:56.333Z,1.75
2022-11-23T14:03:44.862Z,1.35
2022-11-23T14:06:20.817Z,1.70
2022-11-23T14:08:50.824Z,1.25
2022-11-23T14:11:22.690Z,1.30
2022-11-23T14:14:03.437Z,1.60
2022-11-23T14:17:09.132Z,1.42
2022-11-23T14:20:01.136Z,1.10
2022-11-23T14:22:36.937Z,1.35
2022-11-23T14:25:33.289Z,1.42
2022-11-23T14:28:22.691Z,1.33
2022-11-23T14:31:22.951Z,1.50
2022-11-23T14:34:11.258Z,1.35
2022-11-23T14:36:59.470Z,1.50
2022-11-23T14:39:44.887Z,1.70
2022-11-23T14:42:17.433Z,1.35
2022-11-23T14:44:45.047Z,1.45
2022-11-23T14:47:12.427Z,1.60
2022-11-23T14:49:52.150Z,1.15
2022-11-23T14:52:22.265Z,1.20
2022-11-23T14:54:51.781Z,1.17
2022-11-23T14:57:20.794Z,1.40
2022-11-23T14:59:55.008Z,1.10
2022-11-23T15:02:34.116Z,1.80
2022-11-23T15:05:03.529Z,1.42
2022-11-23T15:07:42.354Z,1.30
2022-11-23T15:10:26.365Z,1.70
2022-11-23T15:12:52.996Z,2.40
2022-11-23T15:15:22.420Z,2.08
2022-11-23T15:17:59.147Z,1.85
2022-11-23T15:20:32.578Z,1.80
2022-11-23T15:23:02.899Z,1.25
2022-11-23T15:25:29.936Z,1.13
2022-11-23T15:27:56.676Z,1.40
2022-11-23T15:30:30.864Z,1.77
2022-11-23T15:33:00.668Z,1.20
2022-11-23T15:35:35.554Z,1.20
2022-11-23T15:38:04.465Z,1.80
2022-11-23T15:40:35.988Z,1.52
2022-11-23T15:43:02.683Z,1.05
2022-11-23T15:45:41.633Z,1.25
2022-11-23T15:48:21.633Z,1.42
2022-11-23T15:50:56.887Z,1.40
2022-11-23T15:53:29.919Z,1.63
2022-11-23T15:56:03.067Z,1.85
2022-11-23T15:58:31.110Z,1.38
2022-11-23T16:01:12.968Z,1.85
2022-11-23T16:04:04.887Z,1.95
2022-11-23T16:06:38.095Z,1.90
2022-11-23T16:09:53.993Z,1.90
2022-11-23T16:12:27.318Z,2.28
2022-11-23T16:14:56.144Z,1.90
2022-11-23T16:17:30.199Z,1.38
2022-11-23T16:19:58.926Z,2.30
2022-11-23T16:22:28.373Z,1.40
2022-11-23T16:25:01.905Z,1.60
2022-11-23T16:27:28.872Z,1.65
2022-11-23T16:29:58.813Z,1.80
2022-11-23T16:32:31.314Z,1.80
2022-11-23T16:35:19.389Z,1.70
2022-11-23T16:37:47.040Z,2.10
2022-11-23T16:40:14.605Z,1.90
2022-11-23T16:42:41.503Z,1.67
2022-11-23T16:45:08.860Z,1.77
2022-11-23T16:47:35.598Z,1.70
2022-11-23T16:50:02.325Z,2.13
2022-11-23T16:52:29.035Z,2.13
2022-11-23T16:54:55.643Z,1.88
2022-11-23T16:57:34.684Z,1.70
2022-11-23T17:00:04.807Z,1.92
2022-11-23T17:02:31.919Z,2.10
2022-11-23T17:04:58.723Z,1.80
2022-11-23T17:07:25.739Z,2.03
2022-11-23T17:09:52.577Z,1.98
2022-11-23T17:12:20.408Z,1.98
2022-11-23T17:14:49.133Z,2.08
2022-11-23T17:17:22.222Z,2.05
2022-11-23T17:19:50.082Z,2.00
2022-11-23T17:22:18.455Z,2.28
2022-11-23T17:24:45.998Z,2.70
2022-11-23T17:27:18.928Z,1.90
2022-11-23T17:29:47.632Z,2.15
2022-11-23T17:32:14.767Z,2.50
2022-11-23T17:34:41.597Z,2.40
2022-11-23T17:37:20.854Z,2.28
2022-11-23T17:39:48.388Z,3.00
2022-11-23T17:42:15.406Z,2.30
2022-11-23T17:44:43.458Z,2.45
2022-11-23T17:47:28.942Z,2.92
2022-11-23T17:49:55.829Z,2.25
2022-11-23T17:52:22.989Z,2.70
2022-11-23T17:54:50.228Z,2.60
2022-11-23T17:57:24.716Z,2.50
2022-11-23T17:59:52.133Z,2.72
2022-11-23T18:02:21.025Z,3.83
2022-11-23T18:04:47.992Z,2.85
2022-11-23T18:07:16.646Z,2.78
2022-11-23T18:09:43.361Z,2.67
2022-11-23T18:12:10.198Z,2.55
2022-11-23T18:14:37.515Z,2.58
2022-11-23T18:17:04.192Z,2.85
2022-11-23T18:19:31.213Z,3.15
2022-11-23T18:21:58.588Z,2.67
2022-11-23T18:24:25.144Z,2.70
2022-11-23T18:26:51.807Z,4.45
2022-11-23T18:29:18.491Z,3.42
2022-11-23T18:31:45.055Z,2.85
2022-11-23T18:34:12.700Z,2.80
2022-11-23T18:36:39.355Z,2.90
2022-11-23T18:39:06.313Z,2.95
2022-11-23T18:41:33.043Z,3.30
2022-11-23T18:43:59.586Z,2.80
2022-11-23T18:46:26.406Z,3.00
2022-11-23T18:48:53.636Z,3.00
2022-11-23T18:51:20.290Z,2.92
2022-11-23T18:53:48.106Z,2.88
2022-11-23T18:56:15.030Z,3.08
2022-11-23T18:58:43.308Z,2.40
2022-11-23T19:01:12.669Z,2.70
2022-11-23T19:03:43.683Z,2.65
2022-11-23T19:06:14.648Z,2.28
2022-11-23T19:08:43.001Z,2.60
2022-11-23T19:11:17.569Z,2.75
2022-11-23T19:13:45.891Z,2.60
2022-11-23T19:16:18.536Z,2.63
2022-11-23T19:18:45.512Z,2.75
2022-11-23T19:21:14.484Z,2.53
2022-11-23T19:23:41.203Z,2.42
2022-11-23T19:26:07.867Z,2.28
2022-11-23T19:28:35.062Z,2.20
2022-11-23T19:31:16.854Z,1.65
2022-11-23T19:36:25.799Z,2.80
2022-11-23T19:38:52.619Z,2.72
2022-11-23T19:41:21.266Z,2.05
2022-11-23T19:43:54.308Z,2.45
2022-11-23T19:46:21.093Z,2.40
2022-11-23T19:48:48.000Z,2.65
2022-11-23T19:51:19.573Z,2.30
2022-11-23T19:53:47.823Z,2.63
2022-11-23T19:56:32.101Z,2.35
2022-11-23T19:59:00.729Z,2.20
2022-11-23T20:01:29.381Z,2.20
2022-11-23T20:03:58.044Z,2.58
2022-11-23T20:06:27.315Z,2.28
2022-11-23T20:08:58.751Z,2.53
2022-11-23T20:11:26.332Z,2.53
2022-11-23T20:13:54.122Z,2.47
2022-11-23T20:16:23.806Z,2.40
2022-11-23T20:18:57.100Z,2.80
2022-11-23T20:21:24.775Z,2.60
2022-11-23T20:24:00.001Z,2.42
2022-11-23T20:26:30.700Z,2.78
2022-11-23T20:28:58.806Z,3.10
2022-11-23T20:31:27.550Z,2.65
2022-11-23T20:33:54.657Z,2.38
2022-11-23T20:36:27.497Z,2.92
2022-11-23T20:38:54.892Z,2.90
2022-11-23T20:41:27.056Z,2.40
2022-11-23T20:44:03.224Z,2.75
2022-11-23T20:46:59.883Z,2.70
2022-11-23T20:49:18.020Z,2.58
2022-11-23T20:51:44.624Z,3.20
2022-11-23T20:54:11.563Z,2.97
2022-11-23T20:56:39.368Z,3.22
2022-11-23T20:59:06.395Z,3.00
2022-11-23T21:01:35.705Z,3.33
2022-11-23T21:04:02.732Z,3.00
2022-11-23T21:06:31.453Z,3.95
2022-11-23T21:09:01.253Z,2.90
2022-11-23T21:11:47.942Z,3.80
2022-11-23T21:14:24.509Z,3.72
2022-11-23T21:16:57.079Z,3.67
2022-11-23T21:19:34.095Z,4.10
2022-11-23T21:22:09.923Z,3.38
2022-11-23T21:24:37.492Z,4.87
2022-11-23T21:27:06.242Z,3.25
2022-11-23T21:29:33.858Z,3.60
2022-11-23T21:32:03.533Z,3.33
2022-11-23T21:34:31.517Z,3.70
2022-11-23T21:36:58.761Z,3.28
2022-11-23T21:39:25.599Z,3.42
2022-11-23T21:41:53.823Z,3.53
2022-11-23T21:44:22.149Z,3.78
2022-11-23T21:46:49.066Z,3.45
2022-11-23T21:49:17.108Z,3.30
2022-11-23T21:51:44.629Z,3.40
2022-11-23T21:54:15.515Z,3.10
2022-11-23T21:56:43.601Z,3.55
2022-11-23T21:59:10.463Z,3.28
2022-11-23T22:01:37.904Z,3.45
2022-11-23T22:04:12.213Z,3.67
2022-11-23T22:06:40.420Z,3.67
2022-11-23T22:09:09.486Z,3.88
2022-11-23T22:11:39.644Z,3.38
2022-11-23T22:14:08.910Z,3.33
2022-11-23T22:16:46.633Z,3.42
2022-11-23T22:19:15.640Z,3.60
2022-11-23T22:21:44.099Z,3.33
2022-11-23T22:24:16.317Z,2.83
2022-11-23T22:26:44.052Z,3.63
2022-11-23T22:29:12.516Z,3.78
2022-11-23T22:31:39.826Z,3.10
2022-11-23T22:34:09.217Z,3.47
2022-11-23T22:36:35.873Z,3.08
2022-11-23T22:39:04.865Z,2.92
2022-11-23T22:41:37.248Z,2.80
2022-11-23T22:44:06.375Z,3.00
2022-11-23T22:46:33.413Z,3.38
2022-11-23T22:49:00.289Z,2.90
2022-11-23T22:51:28.830Z,3.35
2022-11-23T22:53:57.521Z,3.33
2022-11-23T22:56:24.513Z,3.47
2022-11-23T22:58:51.191Z,2.83
2022-11-23T23:01:21.258Z,2.50
2022-11-23T23:03:48.363Z,2.88
2022-11-23T23:06:20.166Z,3.20
2022-11-23T23:08:48.168Z,3.50
2022-11-23T23:11:15.439Z,3.05
2022-11-23T23:13:42.325Z,2.67
2022-11-23T23:16:12.215Z,2.67
2022-11-23T23:18:39.517Z,2.60
2022-11-23T23:21:11.356Z,3.00
2022-11-23T23:23:43.565Z,3.15
2022-11-23T23:26:12.342Z,3.08
2022-11-23T23:28:39.297Z,3.40
2022-11-23T23:31:08.250Z,2.72
2022-11-23T23:33:35.328Z,4.40
2022-11-23T23:36:10.751Z,3.47
2022-11-23T23:38:38.039Z,3.00
2022-11-23T23:41:06.405Z,3.38
2022-11-23T23:43:33.999Z,3.05
2022-11-23T23:46:02.396Z,2.80
2022-11-23T23:48:31.110Z,2.65
2022-11-23T23:50:57.690Z,3.22
2022-11-23T23:53:24.494Z,3.13
2022-11-23T23:55:58.799Z,2.92
2022-11-23T23:58:25.811Z,2.83
